Time;durP1;ratioP1;P1;durP2;ratioP2;P2;SDS_P1;SDS_P2;PMS_P1;PMS_P2;Temp;Humidity;BMP_temperature;BMP_pressure;BME280_temperature;BME280_humidity;BME280_pressure;Samples;Min_cycle;Max_cycle;Signal;HPM_P1;HPM_P2
2023/10/27 00:01:40;;;;;;;10.57;3.30;;;;;;;16.53;100.00;99518.34;5050642;28;20402;-68
2023/10/27 00:04:06;;;;;;;10.63;3.03;;;;;;;16.10;100.00;99446.38;5050282;28;20021;-72
2023/10/27 00:06:32;;;;;;;8.30;3.13;;;;;;;16.52;100.00;99498.38;5050605;28;20036;-68
2023/10/27 00:08:58;;;;;;;13.32;3.97;;;;;;;16.46;100.00;99499.22;5050668;28;20052;-68
2023/10/27 00:11:25;;;;;;;8.48;3.00;;;;;;;16.39;100.00;99495.78;5050554;28;20453;-68
2023/10/27 00:13:51;;;;;;;11.88;3.70;;;;;;;16.39;100.00;99495.78;5050438;28;20040;-68
2023/10/27 00:16:16;;;;;;;9.77;3.75;;;;;;;16.23;100.00;99492.34;5049825;28;20099;-67
2023/10/27 00:18:42;;;;;;;9.05;3.20;;;;;;;16.21;100.00;99494.06;5050147;28;20409;-69
2023/10/27 00:21:07;;;;;;;10.98;3.83;;;;;;;15.78;100.00;99426.44;5050355;28;20388;-68
2023/10/27 00:23:32;;;;;;;12.10;3.53;;;;;;;16.25;100.00;99487.13;5050159;28;20493;-68
2023/10/27 00:25:58;;;;;;;10.65;3.17;;;;;;;16.20;100.00;99474.13;5050480;28;20029;-69
2023/10/27 00:28:23;;;;;;;11.85;3.60;;;;;;;16.25;100.00;99487.13;5050078;28;20021;-69
2023/10/27 00:30:49;;;;;;;8.45;3.30;;;;;;;16.04;100.00;99480.22;5049924;28;20021;-69
2023/10/27 00:33:14;;;;;;;9.82;3.35;;;;;;;15.76;100.00;99488.88;5049714;28;20025;-70
2023/10/27 00:35:40;;;;;;;11.40;3.55;;;;;;;15.68;100.00;99501.03;5049919;28;20064;-69
2023/10/27 00:38:05;;;;;;;12.98;5.10;;;;;;;15.65;100.00;99491.50;5049977;28;20021;-69
2023/10/27 00:40:31;;;;;;;10.63;3.30;;;;;;;15.48;100.00;99465.47;5050141;28;20479;-68
2023/10/27 00:42:57;;;;;;;11.55;3.55;;;;;;;15.62;100.00;99478.47;5049922;28;20390;-68
2023/10/27 00:45:24;;;;;;;9.98;3.53;;;;;;;15.62;100.00;99483.69;5049536;28;20551;-68
2023/10/27 00:47:50;;;;;;;10.02;3.40;;;;;;;15.50;100.00;99465.47;5049893;28;20032;-71
2023/10/27 00:50:15;;;;;;;8.32;3.78;;;;;;;15.59;100.00;99475.88;5050015;28;20399;-68
2023/10/27 00:52:41;;;;;;;10.38;3.65;;;;;;;15.44;100.00;99461.13;5049788;28;20031;-68
2023/10/27 00:55:07;;;;;;;12.85;3.72;;;;;;;15.45;100.00;99452.47;5049745;28;20082;-70
2023/10/27 00:57:35;;;;;;;12.57;3.50;;;;;;;15.52;100.00;99458.53;5049564;28;20031;-68
2023/10/27 01:00:04;;;;;;;9.10;3.55;;;;;;;15.55;100.00;99453.31;5049790;28;20029;-68
2023/10/27 01:02:29;;;;;;;11.77;4.07;;;;;;;15.13;100.00;99379.66;5049397;28;20052;-68
2023/10/27 01:04:55;;;;;;;12.55;4.32;;;;;;;15.51;100.00;99460.28;5049692;28;20468;-69
2023/10/27 01:07:23;;;;;;;9.27;3.55;;;;;;;15.42;100.00;99462.84;5032053;28;20032;-67
2023/10/27 01:09:48;;;;;;;10.52;3.40;;;;;;;15.20;100.00;99456.75;5049537;28;20029;-67
2023/10/27 01:12:13;;;;;;;11.93;3.13;;;;;;;14.51;100.00;99379.47;5049764;28;20020;-68
2023/10/27 01:14:39;;;;;;;12.07;3.30;;;;;;;14.79;100.00;99453.22;5031460;28;20037;-68
2023/10/27 01:17:04;;;;;;;10.90;3.17;;;;;;;14.61;100.00;99456.56;5049191;28;20025;-67
2023/10/27 01:19:30;;;;;;;10.57;3.33;;;;;;;14.28;100.00;99432.19;5049683;28;20037;-68
2023/10/27 01:21:55;;;;;;;7.10;2.83;;;;;;;13.89;100.00;99379.19;5031529;28;20475;-67
2023/10/27 01:24:22;;;;;;;9.32;3.47;;;;;;;14.39;100.00;99456.47;5049474;28;20529;-68
2023/10/27 01:26:49;;;;;;;8.02;3.53;;;;;;;14.43;100.00;99453.88;5049574;28;20032;-68
2023/10/27 01:29:14;;;;;;;6.53;2.80;;;;;;;14.36;100.00;99446.06;5049587;28;20060;-68
2023/10/27 01:31:40;;;;;;;9.00;3.28;;;;;;;14.49;100.00;99456.50;5049226;28;20099;-69
2023/10/27 01:34:05;;;;;;;10.85;3.10;;;;;;;14.56;100.00;99458.28;5049488;28;20022;-67
2023/10/27 01:36:31;;;;;;;11.93;3.08;;;;;;;14.54;100.00;99478.16;5049768;28;20045;-68
2023/10/27 01:38:56;;;;;;;10.80;3.13;;;;;;;14.48;100.00;99476.44;5049319;28;20021;-68
2023/10/27 01:41:22;;;;;;;8.82;2.95;;;;;;;14.50;100.00;99473.81;5049164;28;20033;-68
2023/10/27 01:43:47;;;;;;;10.07;4.05;;;;;;;14.48;100.00;99475.53;5047724;28;20021;-67
2023/10/27 01:46:13;;;;;;;10.80;4.18;;;;;;;14.27;100.00;99478.88;5048841;28;20029;-73
2023/10/27 01:48:38;;;;;;;8.13;3.17;;;;;;;14.04;100.00;99477.91;5049092;28;20523;-68
2023/10/27 01:51:03;;;;;;;8.85;3.58;;;;;;;14.03;100.00;99494.31;5049120;28;20380;-68
2023/10/27 01:53:31;;;;;;;7.32;2.90;;;;;;;13.96;100.00;99497.72;5049257;28;20052;-68
2023/10/27 01:55:56;;;;;;;13.20;2.95;;;;;;;13.73;100.00;99484.56;5030986;28;20053;-68
2023/10/27 01:58:22;;;;;;;9.32;3.17;;;;;;;13.67;100.00;99456.88;5033184;28;20187;-68
2023/10/27 02:00:48;;;;;;;11.23;3.35;;;;;;;13.90;100.00;99464.81;5052506;28;20043;-70
2023/10/27 02:03:13;;;;;;;8.70;3.40;;;;;;;14.02;100.00;99476.16;5052946;28;20033;-70
2023/10/27 02:05:43;;;;;;;7.80;3.03;;;;;;;14.13;100.00;99484.00;5052853;28;20155;-70
2023/10/27 02:08:08;;;;;;;;;;;;;;;14.05;100.00;99487.41;5053234;28;20036;-68
2023/10/27 02:10:34;;;;;;;13.25;3.30;;;;;;;13.74;100.00;99487.19;5034940;28;19912;-68
2023/10/27 02:12:59;;;;;;;13.10;3.45;;;;;;;13.79;100.00;99507.09;5052858;28;20058;-68
2023/10/27 02:15:25;;;;;;;11.70;4.47;;;;;;;13.23;100.00;99424.50;5052569;28;20075;-68
2023/10/27 02:17:50;;;;;;;8.45;3.42;;;;;;;13.71;100.00;99509.66;5052580;28;20028;-69
2023/10/27 02:20:16;;;;;;;9.63;4.18;;;;;;;13.26;100.00;99434.03;5052463;28;20028;-68
2023/10/27 02:22:41;;;;;;;9.80;3.47;;;;;;;13.83;100.00;99514.94;5052202;28;20025;-69
2023/10/27 02:25:07;;;;;;;8.65;3.20;;;;;;;13.72;100.00;99514.84;5052365;28;20033;-71
2023/10/27 02:27:38;;;;;;;9.40;3.40;;;;;;;13.70;100.00;99510.50;5052021;28;20021;-70
2023/10/27 02:30:05;;;;;;;9.98;3.05;;;;;;;13.68;100.00;99510.50;5049803;28;20036;-69
2023/10/27 02:32:30;;;;;;;8.23;3.17;;;;;;;13.65;100.00;99499.22;4976863;28;20041;-68
2023/10/27 02:34:56;;;;;;;11.55;3.90;;;;;;;13.72;100.00;99509.66;5010127;28;20396;-68
2023/10/27 02:37:22;;;;;;;7.35;3.00;;;;;;;13.69;100.00;99493.19;5009987;28;20384;-68
2023/10/27 02:39:47;;;;;;;9.32;3.25;;;;;;;13.85;100.00;99520.97;5010153;28;20029;-68
2023/10/27 02:42:13;;;;;;;8.70;3.28;;;;;;;13.66;100.00;99482.81;5009827;28;20038;-69
2023/10/27 02:44:39;;;;;;;8.75;3.10;;;;;;;13.85;100.00;99510.59;5009616;28;20053;-69
2023/10/27 02:47:05;;;;;;;8.75;3.33;;;;;;;13.77;100.00;99506.22;5010226;28;20435;-70
2023/10/27 02:49:30;;;;;;;11.70;3.25;;;;;;;13.59;100.00;99502.59;5009556;28;20038;-70
2023/10/27 02:51:56;;;;;;;10.10;3.38;;;;;;;13.58;100.00;99517.31;5009644;28;20026;-69
2023/10/27 02:54:21;;;;;;;10.25;3.55;;;;;;;13.69;100.00;99519.97;4993311;28;20025;-69
2023/10/27 02:56:46;;;;;;;9.13;3.45;;;;;;;13.71;100.00;99533.00;5009673;28;20081;-68
2023/10/27 02:59:12;;;;;;;11.60;3.40;;;;;;;13.60;100.00;99532.88;5009529;28;20066;-68
2023/10/27 03:01:37;;;;;;;7.28;3.80;;;;;;;13.54;100.00;99536.28;5009581;28;20022;-69
2023/10/27 03:04:03;;;;;;;10.75;3.90;;;;;;;13.55;100.00;99529.38;5009393;28;20046;-69
2023/10/27 03:06:28;;;;;;;12.40;4.70;;;;;;;13.45;100.00;99531.00;5009530;28;20045;-68
2023/10/27 03:08:54;;;;;;;12.27;4.55;;;;;;;13.51;100.00;99531.06;5010243;28;20112;-68
2023/10/27 03:11:19;;;;;;;14.30;4.88;;;;;;;13.40;100.00;99504.16;5031555;28;20049;-67
2023/10/27 03:13:45;;;;;;;8.88;5.00;;;;;;;13.35;100.00;99509.25;5031408;28;20029;-67
2023/10/27 03:16:10;;;;;;;15.00;4.95;;;;;;;12.90;100.00;99438.84;5031411;28;20025;-69
2023/10/27 03:18:36;;;;;;;16.45;5.82;;;;;;;13.48;100.00;99519.78;5031495;28;20029;-73
2023/10/27 03:21:05;;;;;;;11.32;6.03;;;;;;;13.39;100.00;99515.38;5031682;28;20053;-68
2023/10/27 03:23:31;;;;;;;12.52;5.80;;;;;;;13.26;100.00;99509.19;5031350;28;20402;-69
2023/10/27 03:25:58;;;;;;;15.93;6.07;;;;;;;13.29;100.00;99514.38;5031307;28;20029;-68
2023/10/27 03:28:24;;;;;;;18.88;6.97;;;;;;;13.42;100.00;99508.50;5031025;28;20116;-68
2023/10/27 03:30:49;;;;;;;14.93;6.90;;;;;;;13.54;100.00;99496.50;5031130;28;20108;-68
2023/10/27 03:33:16;;;;;;;14.23;6.95;;;;;;;13.70;100.00;99487.16;5031142;28;20033;-68
2023/10/27 03:35:44;;;;;;;16.23;7.10;;;;;;;13.67;100.00;99490.59;5031251;28;20033;-69
2023/10/27 03:38:11;;;;;;;16.92;6.30;;;;;;;13.13;100.00;99408.84;5013839;28;20059;-68
2023/10/27 03:40:38;;;;;;;15.82;6.47;;;;;;;13.47;100.00;99486.94;5048492;28;20029;-69
2023/10/27 03:43:03;;;;;;;14.23;6.38;;;;;;;13.33;100.00;99485.03;5052481;28;20395;-72
2023/10/27 03:45:29;;;;;;;14.02;6.72;;;;;;;12.74;100.00;99405.84;4995252;28;20041;-68
2023/10/27 03:47:54;;;;;;;13.38;6.78;;;;;;;13.21;100.00;99487.53;5050706;28;20499;-70
2023/10/27 03:50:20;;;;;;;16.00;7.70;;;;;;;13.25;100.00;99481.53;5045749;28;20083;-68
2023/10/27 03:52:46;;;;;;;11.73;6.45;;;;;;;13.23;100.00;99476.34;5050900;28;20033;-68
2023/10/27 03:55:12;;;;;;;18.92;6.97;;;;;;;12.91;100.00;99398.25;5050283;28;20065;-68
2023/10/27 03:57:39;;;;;;;15.38;7.55;;;;;;;12.81;100.00;99375.69;5032611;28;20029;-68
2023/10/27 04:00:25;;;;;;;16.40;7.47;;;;;;;13.35;100.00;99460.00;5008399;28;20073;-68
2023/10/27 04:02:51;;;;;;;17.40;8.88;;;;;;;13.30;100.00;99479.84;4969074;28;20038;-66
2023/10/27 04:05:16;;;;;;;17.02;8.32;;;;;;;12.88;100.00;99416.34;4953038;28;20105;-68
2023/10/27 04:07:41;;;;;;;14.35;7.78;;;;;;;13.35;100.00;99478.16;4967199;28;20057;-69
2023/10/27 04:10:07;;;;;;;15.18;6.90;;;;;;;13.27;100.00;99487.56;4969510;28;20030;-67
2023/10/27 04:12:33;;;;;;;13.45;6.88;;;;;;;12.74;100.00;99405.84;4969240;28;20122;-68
2023/10/27 04:14:58;;;;;;;19.63;7.25;;;;;;;13.18;100.00;99479.72;4969325;28;20035;-67
2023/10/27 04:17:24;;;;;;;19.75;8.13;;;;;;;13.12;100.00;99480.50;4952591;28;20489;-69
2023/10/27 04:19:50;;;;;;;15.55;6.90;;;;;;;13.08;100.00;99484.81;4969289;28;20634;-69
2023/10/27 04:22:16;;;;;;;14.95;6.88;;;;;;;12.93;100.00;99451.84;4969399;28;20053;-69
2023/10/27 04:24:42;;;;;;;13.73;6.70;;;;;;;13.07;100.00;99464.94;4968786;28;20070;-73
2023/10/27 04:27:07;;;;;;;16.35;7.38;;;;;;;13.06;100.00;99464.88;4969012;28;20062;-71
2023/10/27 04:29:32;;;;;;;21.83;8.02;;;;;;;13.10;100.00;99459.75;4952623;28;20069;-68
2023/10/27 04:31:58;;;;;;;22.42;8.35;;;;;;;13.09;100.00;99475.31;4966784;28;20050;-68
2023/10/27 04:34:23;;;;;;;19.02;8.02;;;;;;;13.13;100.00;99473.63;4992120;28;20042;-68
2023/10/27 04:36:49;;;;;;;17.13;7.43;;;;;;;13.12;100.00;99464.94;5009924;28;20030;-69
2023/10/27 04:39:14;;;;;;;17.17;8.43;;;;;;;13.14;100.00;99460.66;5030499;28;20503;-70
2023/10/27 04:41:40;;;;;;;22.17;9.30;;;;;;;13.09;100.00;99462.34;5030612;28;20022;-69
2023/10/27 04:44:05;;;;;;;22.20;9.20;;;;;;;13.04;100.00;99466.63;5030422;28;20040;-69
2023/10/27 04:46:31;;;;;;;23.30;10.55;;;;;;;13.05;100.00;99466.63;5012767;28;20036;-68
2023/10/27 04:48:57;;;;;;;17.23;9.45;;;;;;;13.05;100.00;99458.00;5030166;28;20462;-68
2023/10/27 04:51:24;;;;;;;20.40;10.07;;;;;;;12.94;100.00;99437.16;5028468;28;20094;-69
2023/10/27 04:53:49;;;;;;;20.23;9.73;;;;;;;13.04;100.00;99469.22;5029668;28;20036;-68
2023/10/27 04:56:16;;;;;;;20.30;9.60;;;;;;;13.05;100.00;99470.94;5029953;28;20128;-68
2023/10/27 04:58:42;;;;;;;23.67;9.68;;;;;;;13.07;100.00;99472.69;5030138;28;20040;-68
2023/10/27 05:01:08;;;;;;;18.70;10.05;;;;;;;13.02;100.00;99470.91;5030249;28;20042;-70
2023/10/27 05:03:33;;;;;;;22.73;9.48;;;;;;;13.02;100.00;99489.94;5030066;28;20116;-68
2023/10/27 05:06:09;;;;;;;19.52;9.57;;;;;;;12.97;100.00;99490.72;5029985;28;20480;-68
2023/10/27 05:08:35;;;;;;;18.17;9.60;;;;;;;12.73;100.00;99455.91;4994842;28;20060;-68
2023/10/27 05:11:00;;;;;;;21.95;9.68;;;;;;;12.90;100.00;99492.38;5029895;28;20518;-68
2023/10/27 05:13:26;;;;;;;24.92;9.68;;;;;;;12.91;100.00;99486.31;5012067;28;20025;-69
2023/10/27 05:15:54;;;;;;;21.45;9.40;;;;;;;12.97;100.00;99485.53;5029873;28;20522;-69
2023/10/27 05:18:19;;;;;;;18.00;9.73;;;;;;;12.93;100.00;99490.69;4995195;28;20053;-69
2023/10/27 05:20:45;;;;;;;23.05;10.18;;;;;;;12.37;100.00;99393.31;5029493;28;20033;-69
2023/10/27 05:23:10;;;;;;;19.80;9.23;;;;;;;12.76;100.00;99471.47;5029803;28;20075;-68
2023/10/27 05:25:36;;;;;;;24.33;11.52;;;;;;;12.86;100.00;99493.16;4968409;28;20129;-68
2023/10/27 05:28:01;;;;;;;15.43;8.77;;;;;;;12.88;100.00;99491.47;4968723;28;20047;-69
2023/10/27 05:30:27;;;;;;;21.55;10.23;;;;;;;12.87;100.00;99507.88;4968602;28;20035;-68
2023/10/27 05:32:52;;;;;;;18.50;9.48;;;;;;;12.87;100.00;99505.28;4971020;28;20061;-67
2023/10/27 05:35:18;;;;;;;20.52;8.70;;;;;;;12.27;100.00;99417.38;4985131;28;20039;-68
2023/10/27 05:37:43;;;;;;;16.00;8.65;;;;;;;12.65;100.00;99481.72;5002712;28;20034;-68
2023/10/27 05:40:10;;;;;;;18.42;8.80;;;;;;;12.79;100.00;99487.91;5011481;28;20069;-69
2023/10/27 05:42:35;;;;;;;27.50;9.82;;;;;;;12.79;100.00;99480.16;5011585;28;20161;-68
2023/10/27 05:45:02;;;;;;;17.33;8.52;;;;;;;12.94;100.00;99505.34;5011421;28;20132;-68
2023/10/27 05:47:28;;;;;;;20.05;9.23;;;;;;;12.43;100.00;99421.03;5011717;28;20030;-69
2023/10/27 05:49:54;;;;;;;16.75;8.55;;;;;;;12.60;100.00;99427.28;5011596;28;20040;-68
2023/10/27 05:52:20;;;;;;;28.90;8.68;;;;;;;13.06;100.00;99498.56;5011101;28;20499;-68
2023/10/27 05:54:46;;;;;;;15.90;8.77;;;;;;;13.15;100.00;99508.22;5010976;28;20038;-68
2023/10/27 05:57:11;;;;;;;18.40;9.27;;;;;;;13.00;100.00;99472.63;5037088;28;20049;-68
2023/10/27 05:59:37;;;;;;;22.95;9.45;;;;;;;13.24;100.00;99505.69;5053157;28;20022;-68
2023/10/27 06:02:02;;;;;;;16.25;8.45;;;;;;;13.32;100.00;99498.88;5053424;28;20037;-68
2023/10/27 06:04:28;;;;;;;18.23;8.43;;;;;;;13.46;100.00;99504.22;5051675;28;20062;-69
2023/10/27 06:06:53;;;;;;;20.60;8.50;;;;;;;13.60;100.00;99504.34;5053529;28;20593;-68
2023/10/27 06:09:19;;;;;;;19.10;8.77;;;;;;;13.72;100.00;99503.56;5053415;28;20427;-68
2023/10/27 06:11:44;;;;;;;17.90;9.57;;;;;;;13.82;100.00;99494.16;5053134;28;20403;-68
2023/10/27 06:14:10;;;;;;;18.15;8.73;;;;;;;13.38;100.00;99416.00;5053000;28;20036;-66
2023/10/27 06:16:36;;;;;;;20.20;9.30;;;;;;;13.93;100.00;99492.50;5053075;28;20029;-68
2023/10/27 06:19:03;;;;;;;26.00;8.43;;;;;;;14.06;100.00;99488.28;5052677;28;20036;-68
2023/10/27 06:21:29;;;;;;;16.38;7.95;;;;;;;13.97;100.00;99462.25;5052305;28;20025;-66
2023/10/27 06:23:54;;;;;;;19.45;8.25;;;;;;;14.25;100.00;99494.47;5052920;28;20032;-67
2023/10/27 06:26:19;;;;;;;18.10;8.07;;;;;;;14.38;100.00;99506.66;5052713;28;20467;-68
2023/10/27 06:28:46;;;;;;;21.08;7.80;;;;;;;14.57;100.00;99514.56;5052589;28;20482;-68
2023/10/27 06:31:12;;;;;;;17.50;7.82;;;;;;;14.69;100.00;99512.06;5052395;28;20514;-69
2023/10/27 06:33:37;;;;;;;21.42;8.80;;;;;;;14.80;100.00;99508.63;5052490;28;20067;-72
2023/10/27 06:36:04;;;;;;;17.77;7.80;;;;;;;14.91;100.00;99512.13;5052637;28;20029;-68
2023/10/27 06:38:30;;;;;;;16.92;7.13;;;;;;;15.04;100.00;99521.72;5052532;28;20025;-67
2023/10/27 06:40:55;;;;;;;26.38;8.45;;;;;;;15.25;100.00;99514.81;5052391;28;20036;-67
2023/10/27 06:43:21;;;;;;;24.52;8.00;;;;;;;15.41;100.00;99499.28;5015891;28;20037;-66
2023/10/27 06:45:46;;;;;;;28.10;8.88;;;;;;;15.65;100.00;99503.63;5052240;28;20033;-66
2023/10/27 06:48:12;;;;;;;17.30;7.50;;;;;;;15.33;100.00;99434.25;5052360;28;20018;-66
2023/10/27 06:50:37;;;;;;;19.48;7.65;;;;;;;15.81;100.00;99507.09;5052153;28;20030;-68
2023/10/27 06:53:03;;;;;;;19.30;7.22;;;;;;;15.88;100.00;99516.69;5052080;28;20426;-68
2023/10/27 06:55:28;;;;;;;18.40;7.32;;;;;;;15.94;100.00;99508.88;5052156;28;20045;-68
2023/10/27 06:57:54;;;;;;;21.30;7.30;;;;;;;15.97;100.00;99498.44;5052319;28;20037;-68
2023/10/27 07:00:19;;;;;;;17.73;6.72;;;;;;;15.95;100.00;99492.41;5052457;28;20037;-67
2023/10/27 07:02:47;;;;;;;17.40;6.38;;;;;;;15.90;100.00;99462.91;5051717;28;20036;-69
2023/10/27 07:05:16;;;;;;;18.67;7.28;;;;;;;16.14;100.00;99493.22;5051870;28;20028;-69
2023/10/27 07:07:42;;;;;;;16.23;5.53;;;;;;;16.26;100.00;99479.34;5050837;28;20104;-68
2023/10/27 07:10:09;;;;;;;23.02;6.53;;;;;;;16.45;100.00;99485.34;5052263;28;20061;-70
2023/10/27 07:12:35;;;;;;;17.23;6.38;;;;;;;16.60;100.00;99484.44;5051892;28;20060;-68
2023/10/27 07:15:00;;;;;;;14.32;6.10;;;;;;;16.76;100.00;99485.25;5052005;28;20411;-68
2023/10/27 07:17:26;;;;;;;15.60;5.80;;;;;;;16.89;100.00;99486.06;5051763;28;20021;-68
2023/10/27 07:19:51;;;;;;;17.58;7.00;;;;;;;17.07;100.00;99489.47;5051851;28;20464;-68
2023/10/27 07:22:19;;;;;;;23.25;6.70;;;;;;;17.09;100.00;99488.59;5051825;28;20031;-72
2023/10/27 07:24:45;;;;;;;19.85;7.55;;;;;;;17.13;100.00;99476.41;5051642;28;20025;-67
2023/10/27 07:27:10;;;;;;;19.73;6.80;;;;;;;17.34;100.00;99471.94;5033842;28;20063;-68
2023/10/27 07:29:36;;;;;;;15.70;6.47;;;;;;;17.44;100.00;99474.44;5051380;28;20037;-69
2023/10/27 07:32:03;;;;;;;21.08;6.35;;;;;;;17.22;100.00;99415.47;5051274;28;20040;-68
2023/10/27 07:34:29;;;;;;;22.48;6.47;;;;;;;17.81;100.00;99472.41;5035311;28;20025;-68
2023/10/27 07:36:55;;;;;;;22.40;6.05;;;;;;;17.92;100.00;99461.00;5031368;28;20095;-73
2023/10/27 07:39:22;;;;;;;14.77;5.95;;;;;;;18.03;100.00;99470.53;5031562;28;20022;-70
2023/10/27 07:41:48;;;;;;;16.88;6.00;;;;;;;17.91;100.00;99438.38;5031265;28;20052;-69
2023/10/27 07:44:13;;;;;;;22.30;7.00;;;;;;;18.14;100.00;99463.44;5031289;28;20079;-68
2023/10/27 07:46:39;;;;;;;17.33;6.00;;;;;;;18.15;100.00;99461.72;5030951;28;20488;-69
2023/10/27 07:49:04;;;;;;;15.68;5.18;;;;;;;18.20;100.00;99455.53;5031399;28;20032;-68
2023/10/27 07:51:30;;;;;;;19.58;5.53;;;;;;;18.35;100.00;99459.72;5031190;28;20112;-69
2023/10/27 07:53:56;;;;;;;18.27;5.38;;;;;;;18.41;100.00;99461.41;5031112;28;20030;-69
2023/10/27 07:56:21;;;;;;;39.63;7.68;;;;;;;18.37;100.00;99429.22;5030523;28;20059;-69
2023/10/27 07:58:47;;;;;;;20.63;5.75;;;;;;;18.25;100.00;99398.88;5030999;28;20789;-68
2023/10/27 08:01:12;;;;;;;23.05;6.18;;;;;;;18.19;100.00;99378.03;5031072;28;20033;-68
2023/10/27 08:03:38;;;;;;;17.33;5.15;;;;;;;18.68;100.00;99441.94;5029740;28;20104;-68
2023/10/27 08:06:07;;;;;;;16.33;4.82;;;;;;;18.71;100.00;99434.03;5030874;28;20064;-67
2023/10/27 08:08:33;;;;;;;21.00;5.28;;;;;;;18.84;100.00;99439.09;5030968;28;20032;-68
2023/10/27 08:10:59;;;;;;;18.92;4.38;;;;;;;18.98;100.00;99428.47;5030761;28;20033;-68
2023/10/27 08:13:25;;;;;;;16.58;4.60;;;;;;;19.12;100.00;99417.84;5030784;28;20457;-68
2023/10/27 08:15:51;;;;;;;22.90;5.38;;;;;;;19.23;100.00;99415.91;5030628;28;20029;-68
2023/10/27 08:18:16;;;;;;;16.27;5.70;;;;;;;19.34;100.00;99413.09;5031017;28;20021;-70
2023/10/27 08:20:43;;;;;;;20.95;6.47;;;;;;;19.46;100.00;99431.22;5030639;28;20026;-68
2023/10/27 08:23:09;;;;;;;19.20;4.70;;;;;;;19.63;100.00;99417.88;5030722;28;20109;-70
2023/10/27 08:25:34;;;;;;;22.63;4.90;;;;;;;19.69;100.00;99411.69;5030699;28;20033;-68
2023/10/27 08:28:03;;;;;;;28.10;4.97;;;;;;;19.72;100.00;99407.22;5030232;28;20021;-69
2023/10/27 08:30:29;;;;;;;20.10;5.18;;;;;;;19.67;100.00;99392.50;5030336;28;20033;-68
2023/10/27 08:32:54;;;;;;;14.98;4.72;;;;;;;19.84;100.00;99405.34;5030598;28;20412;-68
2023/10/27 08:35:20;;;;;;;19.98;5.53;;;;;;;19.49;100.00;99330.84;5030689;28;20033;-68
2023/10/27 08:37:45;;;;;;;21.25;5.60;;;;;;;20.02;100.00;99401.50;5030556;28;20115;-68
2023/10/27 08:40:12;;;;;;;24.42;5.40;;;;;;;19.41;100.00;99268.16;5030153;28;20052;-69
2023/10/27 08:42:40;;;;;;;26.88;6.03;;;;;;;19.92;100.00;99329.22;5030485;28;20546;-68
2023/10/27 08:45:07;;;;;;;18.40;5.63;;;;;;;20.32;100.00;99380.81;5029999;28;20038;-71
2023/10/27 08:47:34;;;;;;;17.73;4.13;;;;;;;20.38;100.00;99388.56;5030194;28;20531;-68
2023/10/27 08:50:01;;;;;;;15.10;5.28;;;;;;;20.50;100.00;99379.59;5030187;28;20037;-66
2023/10/27 08:52:27;;;;;;;16.88;4.13;;;;;;;20.77;100.00;99375.53;5030119;28;20036;-68
2023/10/27 08:54:54;;;;;;;13.90;4.03;;;;;;;20.79;100.00;99370.25;5030091;28;20052;-69
2023/10/27 08:57:19;;;;;;;18.35;4.60;;;;;;;21.00;100.00;99374.13;5012597;28;20083;-69
2023/10/27 08:59:45;;;;;;;16.75;5.03;;;;;;;21.19;100.00;99376.31;5030191;28;20025;-68
2023/10/27 09:02:10;;;;;;;20.13;4.95;;;;;;;21.42;100.00;99370.47;5030284;28;20022;-68
2023/10/27 09:04:43;;;;;;;22.63;4.55;;;;;;;21.49;100.00;99380.78;5030132;28;20028;-68
2023/10/27 09:07:08;;;;;;;15.68;4.93;;;;;;;21.66;100.00;99387.41;5029718;28;20042;-70
2023/10/27 09:09:34;;;;;;;15.68;4.45;;;;;;;21.77;100.00;99388.00;5029921;28;20036;-70
2023/10/27 09:12:00;;;;;;;16.23;3.83;;;;;;;21.60;100.00;99330.63;5029459;28;20543;-69
2023/10/27 09:14:30;;;;;;;17.20;4.50;;;;;;;21.98;100.00;99362.91;5030108;28;20159;-73
2023/10/27 09:17:06;;;;;;;20.05;4.97;;;;;;;22.10;98.94;99380.06;5049970;28;20029;-68
2023/10/27 09:19:32;;;;;;;16.90;4.75;;;;;;;22.10;97.66;99374.81;5049624;28;20506;-69
2023/10/27 09:21:58;;;;;;;24.95;5.20;;;;;;;22.18;98.56;99372.00;5014567;28;20533;-68
2023/10/27 09:24:28;;;;;;;14.63;3.65;;;;;;;22.33;97.46;99372.44;5049597;28;20100;-69
2023/10/27 09:26:56;;;;;;;16.50;4.85;;;;;;;22.44;96.37;99376.53;5049742;28;20502;-69
2023/10/27 09:29:22;;;;;;;15.45;4.95;;;;;;;22.10;96.06;99308.25;5049797;28;20074;-66
2023/10/27 09:31:50;;;;;;;17.65;5.00;;;;;;;22.55;96.36;99370.06;5049551;28;20021;-68
2023/10/27 09:34:20;;;;;;;16.33;4.38;;;;;;;22.58;96.96;99356.81;5049557;28;20094;-68
2023/10/27 09:36:49;;;;;;;19.25;4.93;;;;;;;22.62;96.97;99348.78;5049484;28;20134;-69
2023/10/27 09:39:18;;;;;;;14.90;4.30;;;;;;;22.69;96.27;99338.97;5049379;28;20036;-69
2023/10/27 09:41:53;;;;;;;12.82;3.22;;;;;;;23.02;86.95;99323.00;5049653;28;20097;-69
2023/10/27 09:44:20;;;;;;;16.55;4.40;;;;;;;23.23;84.19;99286.38;5049555;28;20040;-69
2023/10/27 09:46:52;;;;;;;10.27;4.28;;;;;;;23.71;81.99;99301.38;5049613;28;20106;-69
2023/10/27 09:49:38;;;;;;;15.02;4.05;;;;;;;23.81;81.18;99288.69;5049450;28;20114;-69
2023/10/27 09:52:08;;;;;;;8.02;2.65;;;;;;;23.84;81.19;99295.63;5049494;28;20147;-69
2023/10/27 09:54:33;;;;;;;6.25;2.50;;;;;;;23.97;80.71;99283.75;5049239;28;20116;-70
2023/10/27 09:57:04;;;;;;;8.25;2.45;;;;;;;24.05;80.26;99280.81;5049433;28;20164;-69
2023/10/27 09:59:30;;;;;;;11.43;2.38;;;;;;;24.20;79.31;99293.44;5049278;28;20475;-68
2023/10/27 10:02:00;;;;;;;12.65;3.22;;;;;;;24.33;78.08;99285.06;5049371;28;20025;-69
2023/10/27 10:04:56;;;;;;;14.85;2.55;;;;;;;24.49;76.77;99280.03;5049253;28;20029;-69
2023/10/27 10:07:32;;;;;;;12.48;2.42;;;;;;;24.21;75.58;99210.78;5049497;28;20033;-68
2023/10/27 10:10:16;;;;;;;8.30;2.30;;;;;;;24.78;74.33;99252.47;5049227;28;20428;-68
2023/10/27 10:13:04;;;;;;;12.07;2.60;;;;;;;24.86;74.20;99257.44;5048958;28;20039;-68
2023/10/27 10:15:37;;;;;;;10.40;1.67;;;;;;;25.00;71.78;99246.31;5049406;28;20108;-72
2023/10/27 10:18:05;;;;;;;8.10;2.17;;;;;;;25.05;70.76;99244.34;5050185;28;20025;-69
2023/10/27 10:20:49;;;;;;;5.97;2.08;;;;;;;25.07;69.83;99245.13;5052739;28;20434;-68
2023/10/27 10:23:16;;;;;;;8.77;2.60;;;;;;;24.98;70.49;99238.44;5053126;28;20029;-69
2023/10/27 10:25:55;;;;;;;11.38;2.33;;;;;;;24.87;70.63;99224.84;5052869;28;20111;-69
2023/10/27 10:28:22;;;;;;;7.28;1.92;;;;;;;24.82;71.13;99226.81;5052771;28;20029;-68
2023/10/27 10:31:09;;;;;;;8.52;1.90;;;;;;;24.77;71.15;99223.53;5052697;28;20078;-68
2023/10/27 10:33:36;;;;;;;7.03;2.20;;;;;;;24.74;70.61;99226.31;5052659;28;20063;-69
2023/10/27 10:36:22;;;;;;;8.77;2.55;;;;;;;24.67;71.71;99226.56;5052728;28;20025;-69
2023/10/27 10:38:55;;;;;;;6.38;2.03;;;;;;;24.65;71.83;99214.31;5052505;28;20461;-69
2023/10/27 10:41:21;;;;;;;8.07;2.25;;;;;;;24.67;72.44;99215.13;5052663;28;20485;-68
2023/10/27 10:44:13;;;;;;;9.80;2.47;;;;;;;24.65;72.56;99207.28;5051974;28;20032;-69
2023/10/27 10:46:39;;;;;;;9.98;2.63;;;;;;;24.64;72.59;99207.31;5052455;28;20028;-68
2023/10/27 10:49:05;;;;;;;7.90;2.15;;;;;;;24.31;72.23;99139.19;5052234;28;20143;-69
2023/10/27 10:51:36;;;;;;;11.10;3.00;;;;;;;24.68;71.76;99201.00;5052263;28;20056;-69
2023/10/27 10:54:02;;;;;;;14.60;2.28;;;;;;;24.68;70.22;99188.66;5051771;28;20025;-69
2023/10/27 10:56:28;;;;;;;8.75;3.10;;;;;;;24.76;69.90;99198.03;5051895;28;20128;-69
2023/10/27 10:58:54;;;;;;;12.45;2.38;;;;;;;24.77;67.98;99160.19;5052692;28;20468;-72
2023/10/27 11:01:23;;;;;;;7.35;1.77;;;;;;;24.92;66.57;99169.22;5052153;28;20032;-67
2023/10/27 11:03:49;;;;;;;15.85;2.58;;;;;;;24.96;67.06;99173.44;5052093;28;20049;-69
2023/10/27 11:06:18;;;;;;;10.68;2.60;;;;;;;24.84;66.27;99143.16;5050283;28;20044;-71
2023/10/27 11:08:45;;;;;;;14.88;2.65;;;;;;;24.91;65.86;99141.09;5050567;28;20028;-69
2023/10/27 11:11:16;;;;;;;9.13;2.45;;;;;;;24.96;65.01;99170.78;5051598;28;20407;-69
2023/10/27 11:13:57;;;;;;;10.98;2.13;;;;;;;24.83;64.94;99166.03;5051199;28;20136;-69
2023/10/27 11:16:24;;;;;;;13.18;2.65;;;;;;;24.79;65.22;99163.63;5051323;28;20079;-68
2023/10/27 11:18:52;;;;;;;12.57;2.35;;;;;;;24.78;64.84;99167.19;5051522;28;20028;-68